Terminal Aerodrome Forecast
Issued by NWS

Home | Current Version | Previous Version | Text Only | Print | Product List | Glossary On
Versions: 1 2 3 4 5 6 7 8 9 10 11 12 13 14 15 16 17 18 19
000
FTAK31 PAJN 020527
TAFAKT
TAF
PAKT 020527Z 0206/0306 14006KT P6SM SCT025 BKN050 BKN080
      TEMPO 0206/0209 BKN012 BKN025
     FM021200 31005KT P6SM BCFG FEW001 SCT100
     FM021800 32008KT P6SM SKC
      AMD LTD TO CLD VIS AND WIND 0206/0215=

USA.gov is the U.S. government's official web portal to all federal, state and local government web resources and services.